KALI/ALI METAR and TAF weather

Enter ICAO airport designator
Station Type Date Time Source
KALI METAR 2022/06/26 11:53 UTC NOAA

KALI 261153Z AUTO 04003KT 8SM CLR 22/22 A3002 RMK AO2 SLP162 T02220217 10256 20222 53003


Station Type Date Time Source
KALI Decoded METAR 2022/06/26 11:53 UTC NOAA

ALICE INTERNATIONAL AIRPORT, TX, United States (KALI) 27-44N 098-01W 53M
Jun 26, 2022 - 07:53 AM EDT / 2022.06.26 1153 UTC
Wind: from the NE (040 degrees) at 3 MPH (3 KT):0
Visibility: 8 mile(s):0
Sky conditions: clear
Temperature: 72.0 F (22.2 C)
Dew Point: 71.1 F (21.7 C)
Relative Humidity: 96%
Pressure (altimeter): 30.02 in. Hg (1016 hPa)
Pressure tendency: 0.01 inches (0.3 hPa) higher than three hours ago
ob: KALI 261153Z AUTO 04003KT 8SM CLR 22/22 A3002 RMK AO2 SLP162 T02220217 10256 20222 53003
cycle: 12

Station Type Date Time Source
KALI TAF 2022/06/27 06:39 UTC NOAA

TAF KALI 270536Z 2706/2806 VRB04KT P6SM FEW250
TEMPO 2711/2713 5SM BR
FM272000 06008KT P6SM VCTS SCT040CB PROB30 2720/2724 VRB15KT 4SM TSRA BKN035CB
FM280300 13006KT P6SM BKN150 BKN250

Example: see airport list